Time;durP1;ratioP1;P1;durP2;ratioP2;P2;SDS_P1;SDS_P2;PMS_P1;PMS_P2;Temp;Humidity;BMP_temperature;BMP_pressure;BME280_temperature;BME280_humidity;BME280_pressure;Samples;Min_cycle;Max_cycle;Signal;HPM_P1;HPM_P2
2022/04/17 00:02:22;;;;;;;;;14.67;13.00;;;;;;;;5078417;28;45338;-68
2022/04/17 00:04:47;;;;;;;;;14.00;12.67;;;;;;;;5078632;28;45319;-68
2022/04/17 00:07:13;;;;;;;;;17.67;14.00;;;;;;;;5077913;28;45600;-68
2022/04/17 00:09:38;;;;;;;;;12.00;12.00;;;;;;;;5078336;28;45351;-68
2022/04/17 00:12:03;;;;;;;;;10.33;8.00;;;;;;;;5078301;28;45464;-69
2022/04/17 00:14:28;;;;;;;;;13.33;12.67;;;;;;;;5078427;28;45417;-68
2022/04/17 00:16:55;;;;;;;;;13.67;13.33;;;;;;;;5078145;28;45474;-68
2022/04/17 00:19:20;;;;;;;;;17.33;11.33;;;;;;;;5077940;28;45420;-69
2022/04/17 00:21:45;;;;;;;;;11.67;10.00;;;;;;;;5060251;28;45336;-68
2022/04/17 00:24:12;;;;;;;;;15.33;14.33;;;;;;;;5078529;28;45398;-69
2022/04/17 00:26:37;;;;;;;;;18.00;17.67;;;;;;;;5077720;28;46286;-69
2022/04/17 00:29:02;;;;;;;;;12.00;12.00;;;;;;;;5078067;28;45338;-68
2022/04/17 00:31:27;;;;;;;;;14.33;11.00;;;;;;;;5077977;28;45309;-69
2022/04/17 00:33:52;;;;;;;;;15.33;11.00;;;;;;;;5078236;28;45368;-69
2022/04/17 00:36:18;;;;;;;;;16.00;13.00;;;;;;;;5077148;28;45531;-69
2022/04/17 00:38:43;;;;;;;;;14.00;12.00;;;;;;;;5077660;28;45336;-69
2022/04/17 00:41:08;;;;;;;;;17.33;13.00;;;;;;;;5078012;28;45564;-69
2022/04/17 00:43:42;;;;;;;;;15.00;12.33;;;;;;;;5078042;28;45436;-69
2022/04/17 00:46:08;;;;;;;;;15.00;12.67;;;;;;;;5077542;28;45740;-69
2022/04/17 00:48:33;;;;;;;;;16.67;15.33;;;;;;;;5077773;28;45293;-69
2022/04/17 00:50:59;;;;;;;;;15.00;13.00;;;;;;;;5077441;28;45586;-69
2022/04/17 00:53:26;;;;;;;;;12.00;11.00;;;;;;;;5076915;28;45428;-69
2022/04/17 00:55:51;;;;;;;;;14.00;12.33;;;;;;;;5077093;28;45924;-69
2022/04/17 00:58:17;;;;;;;;;19.33;13.00;;;;;;;;5077733;28;45399;-69
2022/04/17 01:00:42;;;;;;;;;18.33;15.00;;;;;;;;5077716;28;45573;-68
2022/04/17 01:03:10;;;;;;;;;17.67;15.33;;;;;;;;5068206;28;45457;-69
2022/04/17 01:05:37;;;;;;;;;18.67;16.67;;;;;;;;5074299;28;45609;-69
2022/04/17 01:08:02;;;;;;;;;16.00;13.00;;;;;;;;5077400;28;45387;-68
2022/04/17 01:10:27;;;;;;;;;17.00;13.33;;;;;;;;5058980;28;45400;-69
2022/04/17 01:12:58;;;;;;;;;13.67;13.00;;;;;;;;5077668;28;45397;-68
2022/04/17 01:15:23;;;;;;;;;15.33;12.67;;;;;;;;5077087;28;46379;-69
2022/04/17 01:17:49;;;;;;;;;13.00;13.00;;;;;;;;5077359;28;45430;-69
2022/04/17 01:20:14;;;;;;;;;14.67;11.67;;;;;;;;5077324;28;45434;-69
2022/04/17 01:22:45;;;;;;;;;18.33;13.33;;;;;;;;5077437;28;45183;-69
2022/04/17 01:27:54;;;;;;;;;11.00;10.00;;;;;;;;5075500;28;45282;-69
2022/04/17 01:30:20;;;;;;;;;11.33;11.00;;;;;;;;5077570;28;45583;-69
2022/04/17 01:32:45;;;;;;;;;15.00;12.67;;;;;;;;5077249;28;45614;-69
2022/04/17 01:35:10;;;;;;;;;11.33;10.67;;;;;;;;5077119;28;46320;-69
2022/04/17 01:37:35;;;;;;;;;12.67;11.33;;;;;;;;5058603;28;45459;-69
2022/04/17 01:40:00;;;;;;;;;13.33;11.33;;;;;;;;5077394;28;45518;-68
2022/04/17 01:42:26;;;;;;;;;17.00;14.00;;;;;;;;5077063;28;45363;-68
2022/04/17 01:44:51;;;;;;;;;12.33;8.33;;;;;;;;5076996;28;46403;-68
2022/04/17 01:47:16;;;;;;;;;15.00;12.00;;;;;;;;5076744;28;45629;-69
2022/04/17 01:49:41;;;;;;;;;11.33;11.33;;;;;;;;5077005;28;45386;-69
2022/04/17 01:52:08;;;;;;;;;8.00;8.00;;;;;;;;5077112;28;45708;-69
2022/04/17 01:54:33;;;;;;;;;17.00;11.67;;;;;;;;5076611;28;45633;-69
2022/04/17 01:56:58;;;;;;;;;14.00;10.33;;;;;;;;5076590;28;45371;-68
2022/04/17 01:59:24;;;;;;;;;8.00;8.00;;;;;;;;5077343;28;45274;-69
2022/04/17 02:01:49;;;;;;;;;8.67;8.33;;;;;;;;5078661;28;45307;-71
2022/04/17 02:04:15;;;;;;;;;11.00;10.00;;;;;;;;5078392;28;45431;-68
2022/04/17 02:06:40;;;;;;;;;13.00;10.00;;;;;;;;5078004;28;45234;-68
2022/04/17 02:09:11;;;;;;;;;11.67;11.67;;;;;;;;5078526;28;45284;-68
2022/04/17 02:11:38;;;;;;;;;18.00;12.67;;;;;;;;5078177;28;45357;-69
2022/04/17 02:14:04;;;;;;;;;11.33;9.33;;;;;;;;5077267;28;45507;-69
2022/04/17 02:16:30;;;;;;;;;11.67;10.00;;;;;;;;5078255;28;45239;-70
2022/04/17 02:18:55;;;;;;;;;11.33;11.00;;;;;;;;5077254;28;45257;-68
2022/04/17 02:21:21;;;;;;;;;8.00;8.00;;;;;;;;5078477;28;45324;-68
2022/04/17 02:23:47;;;;;;;;;9.67;9.67;;;;;;;;5078235;28;45507;-69
2022/04/17 02:26:13;;;;;;;;;13.33;10.33;;;;;;;;5078117;28;45318;-68
2022/04/17 02:28:40;;;;;;;;;11.33;8.33;;;;;;;;5078419;28;45301;-68
2022/04/17 02:31:05;;;;;;;;;10.00;10.00;;;;;;;;5078247;28;45504;-69
2022/04/17 02:33:31;;;;;;;;;13.33;9.00;;;;;;;;5077423;28;47522;-69
2022/04/17 02:35:56;;;;;;;;;10.33;10.33;;;;;;;;5078334;28;45326;-70
2022/04/17 02:38:22;;;;;;;;;10.67;9.00;;;;;;;;5077985;28;45286;-69
2022/04/17 02:40:47;;;;;;;;;9.00;9.00;;;;;;;;5078209;28;45426;-69
2022/04/17 02:43:12;;;;;;;;;15.33;9.33;;;;;;;;5077208;28;46089;-68
2022/04/17 02:45:38;;;;;;;;;8.00;8.00;;;;;;;;5077494;28;45332;-69
2022/04/17 02:48:03;;;;;;;;;10.00;9.00;;;;;;;;5078236;28;45370;-70
2022/04/17 02:50:28;;;;;;;;;9.33;9.33;;;;;;;;5077996;28;45296;-68
2022/04/17 02:52:55;;;;;;;;;10.67;9.00;;;;;;;;5077921;28;45343;-71
2022/04/17 02:55:20;;;;;;;;;12.33;8.67;;;;;;;;5077660;28;45478;-71
2022/04/17 02:57:46;;;;;;;;;11.00;10.33;;;;;;;;5077598;28;45398;-68
2022/04/17 03:00:11;;;;;;;;;16.00;11.67;;;;;;;;5077737;28;45254;-68
2022/04/17 03:05:36;;;;;;;;;8.67;8.67;;;;;;;;5077598;28;45217;-71
2022/04/17 03:08:02;;;;;;;;;8.67;7.67;;;;;;;;5077146;28;45548;-71
2022/04/17 03:10:27;;;;;;;;;15.67;14.00;;;;;;;;5077599;28;45451;-71
2022/04/17 03:12:52;;;;;;;;;9.33;9.00;;;;;;;;5077300;28;45467;-71
2022/04/17 03:15:17;;;;;;;;;11.33;9.00;;;;;;;;5079272;28;45463;-71
2022/04/17 03:17:43;;;;;;;;;10.00;10.00;;;;;;;;5084447;28;45273;-71
2022/04/17 03:20:08;;;;;;;;;10.00;10.00;;;;;;;;5084445;28;45455;-71
2022/04/17 03:22:34;;;;;;;;;9.67;8.67;;;;;;;;5084235;28;45311;-71
2022/04/17 03:25:00;;;;;;;;;12.00;11.67;;;;;;;;5084253;28;45235;-71
2022/04/17 03:27:25;;;;;;;;;8.67;8.67;;;;;;;;5084338;28;45277;-71
2022/04/17 03:29:50;;;;;;;;;11.33;10.67;;;;;;;;5084255;28;45342;-71
2022/04/17 03:32:15;;;;;;;;;8.67;7.67;;;;;;;;5084035;28;46970;-69
2022/04/17 03:34:41;;;;;;;;;7.00;7.00;;;;;;;;5083128;28;45560;-68
2022/04/17 03:37:06;;;;;;;;;10.33;10.33;;;;;;;;5084230;28;45247;-68
2022/04/17 03:39:32;;;;;;;;;10.33;8.00;;;;;;;;5084093;28;45382;-68
2022/04/17 03:41:57;;;;;;;;;9.00;9.00;;;;;;;;5083612;28;47009;-68
2022/04/17 03:44:23;;;;;;;;;9.00;9.00;;;;;;;;5083978;28;45225;-68
2022/04/17 03:46:49;;;;;;;;;15.67;11.33;;;;;;;;5070204;28;45395;-71
2022/04/17 03:49:14;;;;;;;;;14.00;10.67;;;;;;;;5072523;28;45290;-71
2022/04/17 03:51:39;;;;;;;;;9.00;9.00;;;;;;;;5063528;28;46355;-70
2022/04/17 03:54:05;;;;;;;;;12.00;10.67;;;;;;;;5075624;28;45356;-68
2022/04/17 03:56:30;;;;;;;;;8.33;8.00;;;;;;;;5084163;28;45313;-70
2022/04/17 03:58:55;;;;;;;;;12.00;8.67;;;;;;;;5083260;28;45481;-70
2022/04/17 04:01:21;;;;;;;;;16.33;16.33;;;;;;;;5082247;28;46400;-70
2022/04/17 04:03:48;;;;;;;;;11.33;8.33;;;;;;;;5083493;28;45279;-70
2022/04/17 04:06:13;;;;;;;;;12.33;11.67;;;;;;;;5083648;28;45352;-70
2022/04/17 04:08:38;;;;;;;;;15.33;8.33;;;;;;;;5083341;28;45460;-70
2022/04/17 04:11:03;;;;;;;;;11.00;8.00;;;;;;;;5082968;28;46379;-70
2022/04/17 04:13:29;;;;;;;;;12.67;12.67;;;;;;;;5083510;28;45353;-70
2022/04/17 04:15:57;;;;;;;;;10.33;10.33;;;;;;;;5083617;28;45320;-70
2022/04/17 04:18:22;;;;;;;;;12.33;11.00;;;;;;;;5083383;28;45491;-70
2022/04/17 04:20:47;;;;;;;;;11.00;9.00;;;;;;;;5083473;28;46163;-70
2022/04/17 04:23:12;;;;;;;;;13.00;10.00;;;;;;;;5083040;28;45233;-70
2022/04/17 04:25:38;;;;;;;;;8.00;7.00;;;;;;;;5083631;28;45318;-70
2022/04/17 04:30:46;;;;;;;;;13.67;8.33;;;;;;;;5078457;28;45340;-70
2022/04/17 04:33:12;;;;;;;;;9.33;7.00;;;;;;;;5079868;28;45547;-70
2022/04/17 04:35:37;;;;;;;;;7.33;7.00;;;;;;;;5080313;28;45245;-70
2022/04/17 04:38:02;;;;;;;;;8.00;8.00;;;;;;;;5080107;28;45325;-70
2022/04/17 04:40:31;;;;;;;;;11.00;9.33;;;;;;;;5079461;28;46338;-70
2022/04/17 04:42:57;;;;;;;;;8.33;8.00;;;;;;;;5079796;28;45379;-70
2022/04/17 04:48:06;;;;;;;;;10.33;8.33;;;;;;;;5079869;28;45396;-70
2022/04/17 04:50:31;;;;;;;;;8.67;7.00;;;;;;;;5079482;28;47320;-70
2022/04/17 04:52:56;;;;;;;;;7.00;7.00;;;;;;;;5079567;28;45463;-70
2022/04/17 04:55:22;;;;;;;;;7.00;5.00;;;;;;;;5078635;28;45389;-70
2022/04/17 04:57:47;;;;;;;;;7.00;7.00;;;;;;;;5081966;27;45281;-70
2022/04/17 05:00:13;;;;;;;;;13.33;7.00;;;;;;;;5079296;28;46350;-70
2022/04/17 05:02:38;;;;;;;;;9.67;7.33;;;;;;;;5079479;28;45324;-70
2022/04/17 05:05:07;;;;;;;;;17.00;12.67;;;;;;;;5079579;28;45401;-70
2022/04/17 05:07:32;;;;;;;;;11.67;11.00;;;;;;;;5079224;28;45167;-71
2022/04/17 05:09:57;;;;;;;;;8.00;4.00;;;;;;;;5079295;28;45290;-70
2022/04/17 05:12:23;;;;;;;;;7.00;7.00;;;;;;;;5079243;28;45530;-68
2022/04/17 05:14:50;;;;;;;;;11.00;7.33;;;;;;;;5079522;28;45368;-68
2022/04/17 05:17:16;;;;;;;;;9.33;7.00;;;;;;;;5079499;28;45430;-68
2022/04/17 05:19:42;;;;;;;;;12.00;6.33;;;;;;;;5079003;28;45302;-68
2022/04/17 05:22:10;;;;;;;;;6.00;6.00;;;;;;;;5079367;28;45475;-68
2022/04/17 05:24:36;;;;;;;;;7.00;6.33;;;;;;;;5079358;28;45240;-68
2022/04/17 05:27:01;;;;;;;;;7.00;5.33;;;;;;;;5079370;28;45453;-68
2022/04/17 05:29:26;;;;;;;;;6.00;6.00;;;;;;;;5078784;28;45506;-68
2022/04/17 05:31:52;;;;;;;;;7.67;7.67;;;;;;;;5078980;28;45309;-68
2022/04/17 05:34:17;;;;;;;;;8.67;7.00;;;;;;;;5079216;28;45326;-70
2022/04/17 05:36:43;;;;;;;;;6.33;4.00;;;;;;;;5079185;28;45309;-70
2022/04/17 05:39:08;;;;;;;;;7.00;6.00;;;;;;;;5078474;28;46088;-70
2022/04/17 05:41:34;;;;;;;;;11.33;5.33;;;;;;;;5078934;28;45246;-70
2022/04/17 05:44:01;;;;;;;;;9.33;7.00;;;;;;;;5078860;28;45504;-70
2022/04/17 05:46:27;;;;;;;;;7.00;7.00;;;;;;;;5079163;28;45441;-70
2022/04/17 05:48:52;;;;;;;;;7.67;6.00;;;;;;;;5077135;28;46404;-70
2022/04/17 05:51:18;;;;;;;;;6.33;6.00;;;;;;;;5078548;28;45392;-70
2022/04/17 05:53:43;;;;;;;;;5.00;5.00;;;;;;;;5078353;28;45439;-70
2022/04/17 05:56:08;;;;;;;;;11.00;7.00;;;;;;;;5078355;28;45574;-70
2022/04/17 05:58:34;;;;;;;;;9.00;6.67;;;;;;;;5077442;28;47378;-70
2022/04/17 06:01:00;;;;;;;;;5.00;4.00;;;;;;;;5078299;28;45446;-70
2022/04/17 06:03:26;;;;;;;;;11.00;7.67;;;;;;;;5078551;28;45320;-67
2022/04/17 06:05:51;;;;;;;;;16.00;6.00;;;;;;;;5078627;28;45317;-68
2022/04/17 06:08:16;;;;;;;;;6.67;5.33;;;;;;;;5065725;28;46621;-67
2022/04/17 06:10:42;;;;;;;;;5.33;3.00;;;;;;;;5058663;28;45204;-67
2022/04/17 06:13:07;;;;;;;;;4.67;4.67;;;;;;;;5058243;28;45253;-67
2022/04/17 06:15:32;;;;;;;;;7.00;4.67;;;;;;;;5070609;28;45258;-67
2022/04/17 06:17:58;;;;;;;;;5.33;5.33;;;;;;;;5067611;28;46405;-68
2022/04/17 06:20:23;;;;;;;;;4.33;4.33;;;;;;;;5057972;28;45211;-68
2022/04/17 06:22:48;;;;;;;;;5.33;5.33;;;;;;;;5068695;28;45698;-69
2022/04/17 06:25:14;;;;;;;;;5.00;4.67;;;;;;;;5077587;28;45431;-68
2022/04/17 06:27:43;;;;;;;;;7.00;5.67;;;;;;;;5078206;28;47184;-68
2022/04/17 06:30:11;;;;;;;;;6.00;5.00;;;;;;;;5066017;28;45244;-69
2022/04/17 06:32:40;;;;;;;;;4.00;4.00;;;;;;;;5058649;28;45464;-69
2022/04/17 06:35:06;;;;;;;;;7.00;5.00;;;;;;;;5057821;28;45366;-69
2022/04/17 06:37:31;;;;;;;;;4.33;4.00;;;;;;;;5057388;28;46640;-67
2022/04/17 06:39:57;;;;;;;;;10.33;6.00;;;;;;;;5057359;28;45494;-66
2022/04/17 06:42:22;;;;;;;;;5.33;4.33;;;;;;;;5057980;28;45336;-66
2022/04/17 06:44:48;;;;;;;;;6.00;5.00;;;;;;;;5057644;28;45367;-66
2022/04/17 06:47:13;;;;;;;;;9.00;5.33;;;;;;;;5057572;28;45469;-66
2022/04/17 06:49:38;;;;;;;;;6.33;5.00;;;;;;;;5056272;28;45400;-66
2022/04/17 06:52:03;;;;;;;;;6.67;6.67;;;;;;;;5057799;28;45295;-65
2022/04/17 06:54:29;;;;;;;;;6.33;4.33;;;;;;;;5068688;27;45369;-65
2022/04/17 06:56:54;;;;;;;;;7.33;4.33;;;;;;;;5098096;27;45511;-66
2022/04/17 06:59:19;;;;;;;;;3.00;3.00;;;;;;;;5097986;27;45415;-66
2022/04/17 07:01:44;;;;;;;;;5.33;3.00;;;;;;;;5097599;27;45537;-66
2022/04/17 07:04:09;;;;;;;;;5.00;4.67;;;;;;;;5098297;27;45359;-66
2022/04/17 07:06:35;;;;;;;;;6.00;4.00;;;;;;;;5098012;27;45462;-66
2022/04/17 07:09:00;;;;;;;;;6.00;4.67;;;;;;;;5097876;27;45335;-65
2022/04/17 07:11:26;;;;;;;;;5.00;4.00;;;;;;;;5098004;27;45816;-66
2022/04/17 07:13:51;;;;;;;;;2.00;2.00;;;;;;;;5097619;27;45301;-65
2022/04/17 07:16:16;;;;;;;;;3.33;3.33;;;;;;;;5097745;27;46186;-65
2022/04/17 07:18:42;;;;;;;;;4.67;4.00;;;;;;;;5097570;27;45242;-67
2022/04/17 07:21:08;;;;;;;;;4.00;4.00;;;;;;;;5097856;27;45376;-65
2022/04/17 07:23:33;;;;;;;;;6.33;5.00;;;;;;;;5097944;27;45375;-65
2022/04/17 07:25:58;;;;;;;;;4.67;4.67;;;;;;;;5097285;27;45586;-66
2022/04/17 07:28:24;;;;;;;;;4.00;3.00;;;;;;;;5097723;27;45476;-66
2022/04/17 07:30:49;;;;;;;;;6.67;3.00;;;;;;;;5097434;27;45610;-66
2022/04/17 07:33:16;;;;;;;;;5.00;5.00;;;;;;;;5097836;27;45461;-66
2022/04/17 07:35:41;;;;;;;;;3.00;3.00;;;;;;;;5097383;27;45571;-66
2022/04/17 07:38:06;;;;;;;;;5.00;3.67;;;;;;;;5097281;27;45408;-66
2022/04/17 07:40:33;;;;;;;;;3.33;3.33;;;;;;;;5097699;27;45342;-66
2022/04/17 07:42:59;;;;;;;;;5.33;4.00;;;;;;;;5097597;27;45397;-66
2022/04/17 07:45:25;;;;;;;;;5.00;3.67;;;;;;;;5097147;27;45565;-66
2022/04/17 07:47:51;;;;;;;;;3.00;3.00;;;;;;;;5097474;27;45395;-66
2022/04/17 07:50:17;;;;;;;;;3.00;1.00;;;;;;;;5097419;27;45469;-66
2022/04/17 07:52:43;;;;;;;;;5.00;4.00;;;;;;;;5097837;27;45245;-66
2022/04/17 07:55:12;;;;;;;;;3.33;3.33;;;;;;;;5096072;27;46591;-66
2022/04/17 08:00:22;;;;;;;;;6.67;5.33;;;;;;;;5096687;27;45476;-66
2022/04/17 08:03:49;;;;;;;;;3.00;3.00;;;;;;;;5100676;27;45465;-66
2022/04/17 08:05:44;;;;;;;;;8.00;4.33;;;;;;;;5082278;27;46220;-66
2022/04/17 08:08:09;;;;;;;;;5.33;5.33;;;;;;;;5100681;27;45405;-66
2022/04/17 08:10:35;;;;;;;;;4.00;4.00;;;;;;;;5100548;27;45375;-67
2022/04/17 08:13:01;;;;;;;;;4.00;4.00;;;;;;;;5100548;27;45337;-66
2022/04/17 08:15:26;;;;;;;;;4.67;4.67;;;;;;;;5100116;27;45822;-67
2022/04/17 08:17:52;;;;;;;;;4.00;3.67;;;;;;;;5099808;27;45404;-66
2022/04/17 08:20:17;;;;;;;;;5.67;5.67;;;;;;;;5099729;27;45477;-66
2022/04/17 08:22:42;;;;;;;;;4.33;4.00;;;;;;;;5100715;27;45566;-66
2022/04/17 08:25:07;;;;;;;;;4.00;4.00;;;;;;;;5100439;27;46408;-66
2022/04/17 08:27:33;;;;;;;;;4.00;4.00;;;;;;;;5100104;27;45413;-66
2022/04/17 08:29:59;;;;;;;;;4.00;4.00;;;;;;;;5100471;27;45409;-67
2022/04/17 08:32:24;;;;;;;;;2.67;2.67;;;;;;;;5100296;27;45398;-67
2022/04/17 08:34:49;;;;;;;;;4.67;4.67;;;;;;;;5099817;27;45895;-71
2022/04/17 08:37:14;;;;;;;;;4.00;4.00;;;;;;;;5100102;27;45224;-70
2022/04/17 08:39:40;;;;;;;;;5.00;5.00;;;;;;;;5100049;27;45309;-71
2022/04/17 08:42:05;;;;;;;;;8.67;5.67;;;;;;;;5100312;27;45397;-70
2022/04/17 08:44:31;;;;;;;;;3.33;3.33;;;;;;;;5099815;27;45675;-71
2022/04/17 08:46:56;;;;;;;;;6.00;4.67;;;;;;;;5100188;27;45336;-70
2022/04/17 08:49:23;;;;;;;;;6.33;4.33;;;;;;;;5094958;27;45374;-70
2022/04/17 08:51:49;;;;;;;;;4.00;4.00;;;;;;;;5079285;28;45415;-71
2022/04/17 08:54:16;;;;;;;;;4.33;4.00;;;;;;;;5079225;28;45313;-71
2022/04/17 08:56:41;;;;;;;;;9.00;6.33;;;;;;;;5079273;28;45339;-71
2022/04/17 08:59:06;;;;;;;;;5.00;4.33;;;;;;;;5079536;28;45343;-71
2022/04/17 09:01:35;;;;;;;;;6.00;6.00;;;;;;;;5079614;28;45430;-71
2022/04/17 09:04:00;;;;;;;;;4.50;4.50;;;;;;;;5078994;28;45503;-71
2022/04/17 09:06:25;;;;;;;;;4.00;4.00;;;;;;;;5079583;28;45223;-71
2022/04/17 09:09:04;;;;;;;;;5.00;5.00;;;;;;;;5079458;28;45233;-71
2022/04/17 09:11:30;;;;;;;;;4.67;4.67;;;;;;;;5079590;28;45554;-71
2022/04/17 09:13:58;;;;;;;;;4.67;4.67;;;;;;;;5060193;28;46487;-71
2022/04/17 09:16:30;;;;;;;;;4.67;4.67;;;;;;;;5079134;28;45230;-71
2022/04/17 09:18:56;;;;;;;;;4.00;4.00;;;;;;;;5078412;28;45498;-71
2022/04/17 09:21:29;;;;;;;;;4.00;4.00;;;;;;;;5079701;28;45356;-71
2022/04/17 09:24:11;;;;;;;;;7.00;5.00;;;;;;;;5079013;28;45405;-71
2022/04/17 09:26:36;;;;;;;;;4.33;4.00;;;;;;;;5079164;28;45439;-70
2022/04/17 09:29:15;;;;;;;;;5.33;4.00;;;;;;;;5075241;28;45534;-69
2022/04/17 09:31:40;;;;;;;;;4.00;4.00;;;;;;;;5079206;28;45329;-69
2022/04/17 09:34:09;;;;;;;;;5.33;5.33;;;;;;;;5078460;28;45517;-70
2022/04/17 09:36:37;;;;;;;;;4.33;4.33;;;;;;;;5078719;28;45258;-70
2022/04/17 09:39:12;;;;;;;;;7.67;5.00;;;;;;;;5078516;28;45435;-69
2022/04/17 09:41:50;;;;;;;;;6.00;5.00;;;;;;;;5078789;28;45348;-69
2022/04/17 09:44:32;;;;;;;;;3.33;3.33;;;;;;;;5060087;28;46121;-69
2022/04/17 09:46:58;;;;;;;;;5.67;5.67;;;;;;;;5078455;28;45253;-70
2022/04/17 09:49:23;;;;;;;;;7.00;7.00;;;;;;;;5078449;28;45320;-70
2022/04/17 09:51:49;;;;;;;;;5.00;5.00;;;;;;;;5078770;28;45442;-69
2022/04/17 09:54:14;;;;;;;;;7.33;6.33;;;;;;;;5078036;28;46567;-69
2022/04/17 09:56:40;;;;;;;;;5.67;5.00;;;;;;;;5078208;28;45399;-69
2022/04/17 09:59:19;;;;;;;;;5.67;5.67;;;;;;;;5078507;28;45434;-69
2022/04/17 10:01:50;;;;;;;;;8.00;6.67;;;;;;;;5078140;28;45433;-70
2022/04/17 10:04:17;;;;;;;;;6.00;6.00;;;;;;;;5077406;28;46127;-70
2022/04/17 10:06:42;;;;;;;;;5.00;5.00;;;;;;;;5077558;28;45656;-69
2022/04/17 10:09:08;;;;;;;;;4.00;4.00;;;;;;;;5078436;28;45390;-69
2022/04/17 10:11:34;;;;;;;;;4.33;4.33;;;;;;;;5078433;28;45422;-69
2022/04/17 10:14:01;;;;;;;;;3.33;3.33;;;;;;;;5077923;28;45556;-69
2022/04/17 10:16:30;;;;;;;;;5.67;5.67;;;;;;;;5077828;28;45400;-69
2022/04/17 10:18:57;;;;;;;;;43.75;38.00;;;;;;;;5059774;28;45355;-69
2022/04/17 10:21:25;;;;;;;;;5.00;5.00;;;;;;;;5078234;28;45526;-69
2022/04/17 10:23:53;;;;;;;;;5.33;5.33;;;;;;;;5077370;28;47756;-69
2022/04/17 10:26:20;;;;;;;;;5.67;5.67;;;;;;;;5076515;28;45265;-69
2022/04/17 10:28:48;;;;;;;;;10.00;7.00;;;;;;;;5077073;28;45453;-69
2022/04/17 10:31:17;;;;;;;;;4.00;4.00;;;;;;;;5077185;28;45305;-69
2022/04/17 10:33:42;;;;;;;;;6.00;4.00;;;;;;;;5077592;28;46556;-69
2022/04/17 10:36:10;;;;;;;;;6.67;5.33;;;;;;;;5077797;28;45367;-69
2022/04/17 10:38:50;;;;;;;;;6.67;5.00;;;;;;;;5077804;28;45407;-69
2022/04/17 10:41:15;;;;;;;;;5.67;5.67;;;;;;;;5078035;28;45298;-69
2022/04/17 10:43:46;;;;;;;;;7.67;5.67;;;;;;;;5077493;28;46568;-69
2022/04/17 10:46:18;;;;;;;;;8.00;8.00;;;;;;;;5077855;28;45467;-69
2022/04/17 10:48:44;;;;;;;;;7.33;6.00;;;;;;;;5077597;28;45300;-68
2022/04/17 10:51:14;;;;;;;;;7.67;6.33;;;;;;;;5077975;28;45388;-69
2022/04/17 10:53:49;;;;;;;;;6.00;6.00;;;;;;;;5076408;28;46808;-69
2022/04/17 10:56:15;;;;;;;;;5.67;5.67;;;;;;;;5077180;28;45325;-69
2022/04/17 10:58:48;;;;;;;;;5.67;5.67;;;;;;;;5076886;28;45331;-69
2022/04/17 11:01:13;;;;;;;;;7.33;6.00;;;;;;;;5077505;28;45403;-69
2022/04/17 11:03:49;;;;;;;;;6.00;6.00;;;;;;;;5077077;28;45471;-69
2022/04/17 11:06:32;;;;;;;;;8.00;6.33;;;;;;;;5077268;28;45392;-69
2022/04/17 11:09:04;;;;;;;;;5.33;4.00;;;;;;;;5077289;28;45689;-69
2022/04/17 11:11:39;;;;;;;;;6.67;5.67;;;;;;;;5077629;28;45464;-68
2022/04/17 11:14:10;;;;;;;;;6.33;5.33;;;;;;;;5077110;28;45964;-68
2022/04/17 11:16:41;;;;;;;;;5.00;5.00;;;;;;;;5076911;28;45478;-68
2022/04/17 11:19:09;;;;;;;;;8.00;5.00;;;;;;;;5077223;28;45436;-68
2022/04/17 11:21:40;;;;;;;;;7.00;5.00;;;;;;;;5077390;28;45381;-68
2022/04/17 11:24:05;;;;;;;;;6.67;6.00;;;;;;;;5077064;28;45433;-68
2022/04/17 11:26:50;;;;;;;;;6.33;6.33;;;;;;;;5076981;28;45412;-68
2022/04/17 11:29:15;;;;;;;;;6.33;6.33;;;;;;;;5077439;28;45401;-69
2022/04/17 11:31:40;;;;;;;;;8.33;6.00;;;;;;;;5077130;28;45517;-68
2022/04/17 11:34:05;;;;;;;;;6.67;6.67;;;;;;;;5077095;28;45455;-68
2022/04/17 11:36:30;;;;;;;;;7.33;6.33;;;;;;;;5078198;28;45342;-68
2022/04/17 11:38:56;;;;;;;;;7.00;7.00;;;;;;;;5080317;28;45297;-68
2022/04/17 11:41:23;;;;;;;;;7.00;5.67;;;;;;;;5080823;28;45392;-68
2022/04/17 11:43:58;;;;;;;;;7.67;6.00;;;;;;;;5080396;28;46575;-69
2022/04/17 11:46:23;;;;;;;;;6.33;6.33;;;;;;;;5079159;28;45368;-65
2022/04/17 11:48:48;;;;;;;;;7.00;7.00;;;;;;;;5080503;28;45591;-66
2022/04/17 11:51:20;;;;;;;;;5.67;5.00;;;;;;;;5075393;28;45228;-67
2022/04/17 11:53:45;;;;;;;;;4.33;4.00;;;;;;;;5077979;28;47396;-66
2022/04/17 11:56:11;;;;;;;;;5.00;5.00;;;;;;;;5080282;28;45363;-67
2022/04/17 11:58:36;;;;;;;;;8.00;6.00;;;;;;;;5080280;28;45328;-66
2022/04/17 12:01:04;;;;;;;;;5.33;5.00;;;;;;;;5080371;28;45376;-66
2022/04/17 12:03:36;;;;;;;;;5.00;4.00;;;;;;;;5080078;28;46369;-67
2022/04/17 12:06:03;;;;;;;;;4.00;3.33;;;;;;;;5079690;28;45403;-69
2022/04/17 12:08:35;;;;;;;;;7.00;6.00;;;;;;;;5080712;28;45452;-67
2022/04/17 12:11:01;;;;;;;;;9.00;7.67;;;;;;;;5080414;28;45399;-67
2022/04/17 12:13:28;;;;;;;;;5.33;5.33;;;;;;;;5080121;28;46362;-68
2022/04/17 12:16:03;;;;;;;;;7.00;5.00;;;;;;;;5079983;28;45264;-67
2022/04/17 12:18:29;;;;;;;;;4.33;4.00;;;;;;;;5080251;28;45356;-67
2022/04/17 12:20:58;;;;;;;;;1.67;1.00;;;;;;;;5080439;28;45402;-67
2022/04/17 12:23:24;;;;;;;;;6.33;5.33;;;;;;;;5080000;28;46438;-67
2022/04/17 12:25:50;;;;;;;;;6.33;6.33;;;;;;;;5079909;28;45257;-67
2022/04/17 12:28:15;;;;;;;;;7.00;7.00;;;;;;;;5080321;28;45342;-68
2022/04/17 12:30:41;;;;;;;;;7.00;5.00;;;;;;;;5080076;28;45440;-68
2022/04/17 12:33:22;;;;;;;;;7.33;7.33;;;;;;;;5079968;28;45878;-67
2022/04/17 12:36:00;;;;;;;;;5.33;5.33;;;;;;;;5079883;28;45486;-67
2022/04/17 12:38:25;;;;;;;;;9.00;7.00;;;;;;;;5079791;28;45323;-67
2022/04/17 12:40:51;;;;;;;;;8.00;6.00;;;;;;;;5079902;28;45375;-67
2022/04/17 12:43:20;;;;;;;;;6.33;6.33;;;;;;;;5079718;28;46484;-67
2022/04/17 12:46:03;;;;;;;;;7.00;3.67;;;;;;;;5079732;28;45411;-67
2022/04/17 12:48:33;;;;;;;;;7.00;6.67;;;;;;;;5078820;28;45264;-67
2022/04/17 12:51:06;;;;;;;;;5.00;4.33;;;;;;;;5079827;28;45348;-67
2022/04/17 12:53:43;;;;;;;;;5.00;5.00;;;;;;;;5079391;28;46381;-67
2022/04/17 12:56:11;;;;;;;;;6.67;6.00;;;;;;;;5096891;27;45395;-71
2022/04/17 12:58:50;;;;;;;;;7.00;6.00;;;;;;;;5100243;27;45373;-68
2022/04/17 13:01:19;;;;;;;;;6.33;6.00;;;;;;;;5100031;27;45264;-67
2022/04/17 13:03:45;;;;;;;;;5.67;4.00;;;;;;;;5100005;27;46364;-67
2022/04/17 13:06:17;;;;;;;;;6.00;4.67;;;;;;;;5099739;27;45269;-68
2022/04/17 13:08:42;;;;;;;;;7.00;7.00;;;;;;;;5100111;27;45541;-68
2022/04/17 13:11:19;;;;;;;;;6.00;5.67;;;;;;;;5100077;27;45419;-68
2022/04/17 13:13:50;;;;;;;;;4.00;4.00;;;;;;;;5081335;27;47541;-68
2022/04/17 13:16:15;;;;;;;;;5.00;5.00;;;;;;;;5099585;27;45328;-68
2022/04/17 13:18:41;;;;;;;;;5.67;5.33;;;;;;;;5099997;27;45371;-68
2022/04/17 13:21:07;;;;;;;;;4.00;4.00;;;;;;;;5099867;27;45296;-68
2022/04/17 13:23:33;;;;;;;;;3.00;3.00;;;;;;;;5099760;27;46472;-69
2022/04/17 13:25:58;;;;;;;;;4.00;4.00;;;;;;;;5099854;27;45341;-69
2022/04/17 13:28:23;;;;;;;;;4.00;4.00;;;;;;;;5099520;27;45292;-68
2022/04/17 13:30:49;;;;;;;;;3.00;3.00;;;;;;;;5099865;27;45415;-68
2022/04/17 13:33:15;;;;;;;;;4.00;4.00;;;;;;;;5099431;27;45653;-68
2022/04/17 13:35:40;;;;;;;;;7.00;4.00;;;;;;;;5099306;27;45258;-68
2022/04/17 13:38:11;;;;;;;;;3.00;3.00;;;;;;;;5099707;27;45419;-68
2022/04/17 13:40:37;;;;;;;;;2.33;2.33;;;;;;;;5099596;27;45410;-68
2022/04/17 13:43:02;;;;;;;;;3.00;2.00;;;;;;;;5098860;27;46439;-68
2022/04/17 13:45:27;;;;;;;;;3.00;3.00;;;;;;;;5099500;27;45731;-68
2022/04/17 13:47:52;;;;;;;;;1.33;1.33;;;;;;;;5099408;27;45321;-69
2022/04/17 13:50:18;;;;;;;;;3.00;3.00;;;;;;;;5099545;27;45345;-69
2022/04/17 13:52:44;;;;;;;;;4.00;4.00;;;;;;;;5098978;27;45395;-68
2022/04/17 13:55:09;;;;;;;;;4.00;4.00;;;;;;;;5098963;27;45413;-69
2022/04/17 13:57:34;;;;;;;;;3.00;3.00;;;;;;;;5099492;27;45337;-68
2022/04/17 14:00:00;;;;;;;;;4.00;4.00;;;;;;;;5099106;27;45360;-68
2022/04/17 14:02:25;;;;;;;;;4.67;3.33;;;;;;;;5098934;27;45524;-69
2022/04/17 14:04:50;;;;;;;;;4.67;4.67;;;;;;;;5098922;27;45422;-68
2022/04/17 14:07:15;;;;;;;;;5.00;5.00;;;;;;;;5099291;27;45362;-69
2022/04/17 14:09:41;;;;;;;;;3.33;3.33;;;;;;;;5099211;27;45526;-68
2022/04/17 14:12:09;;;;;;;;;7.67;5.00;;;;;;;;5098749;27;47475;-68
2022/04/17 14:14:37;;;;;;;;;4.67;4.67;;;;;;;;5098832;27;45320;-68
2022/04/17 14:17:03;;;;;;;;;4.33;4.33;;;;;;;;5098670;27;45389;-68
2022/04/17 14:19:28;;;;;;;;;5.67;3.00;;;;;;;;5098898;27;45336;-68
2022/04/17 14:21:53;;;;;;;;;4.33;4.33;;;;;;;;5093850;27;46328;-68
2022/04/17 14:24:18;;;;;;;;;6.00;5.00;;;;;;;;5076199;27;45374;-68
2022/04/17 14:26:44;;;;;;;;;6.00;4.00;;;;;;;;5078320;28;45390;-67
2022/04/17 14:29:09;;;;;;;;;3.33;3.33;;;;;;;;5078256;28;45473;-68
2022/04/17 14:31:34;;;;;;;;;3.00;3.00;;;;;;;;5077778;28;46628;-68
2022/04/17 14:33:59;;;;;;;;;3.00;3.00;;;;;;;;5078089;28;45423;-68
2022/04/17 14:36:26;;;;;;;;;6.33;4.00;;;;;;;;5077745;28;45354;-68
2022/04/17 14:38:52;;;;;;;;;2.00;2.00;;;;;;;;5077957;28;45511;-68
2022/04/17 14:41:17;;;;;;;;;3.00;3.00;;;;;;;;5077010;28;46327;-68
2022/04/17 14:43:42;;;;;;;;;6.33;4.67;;;;;;;;5077599;28;45384;-68
2022/04/17 14:46:07;;;;;;;;;3.33;3.33;;;;;;;;5077783;28;45296;-68
2022/04/17 14:48:33;;;;;;;;;3.00;2.00;;;;;;;;5077802;28;45397;-68